SWR455 LSZH-LMML
Flight info
| Callsign | SWR455 |
|---|---|
| Flight time | 1h 38m |
| Altitude | 38000 |
| Route | VEBIT T53 GERSA DCT SOSON DCT ODINA DCT SRN DCT KALIK/N0477F390 DCT EMBOS DCT MAREL DCT ROSKI DCT MEDAL DCT MARON DCT EKOLA L12 GZO |
| Aircraft | A359/H-SDE2E3GHIJ3J4J5LM1ORWXY/LB1D1 |
Departure
| Time | 2026-04-26 16:37 |
|---|---|
| Airport | Zürich Airport (LSZH) |
Arrival
| Time | 2026-04-26 18:15 |
|---|---|
| Airport | Malta International Airport (LMML) |
| Time | Latitude | Longitude | Altitude | Speed | Heading |
|---|---|---|---|---|---|
| 2026-04-26 16:25 | 47.46060 | 8.55237 | 1403 ft | 0 kts | 6° |
| 2026-04-26 16:29 | 47.46049 | 8.55235 | 1410 ft | 4 kts | 6° |
| 2026-04-26 16:30 | 47.46022 | 8.55231 | 1407 ft | 4 kts | 6° |
| 2026-04-26 16:30 | 47.46000 | 8.55229 | 1409 ft | 4 kts | 340° |
| 2026-04-26 16:30 | 47.45984 | 8.55251 | 1413 ft | 4 kts | 282° |
| 2026-04-26 16:30 | 47.45981 | 8.55287 | 1413 ft | 1 kts | 276° |
| 2026-04-26 16:31 | 47.45980 | 8.55294 | 1413 ft | 0 kts | 276° |
| 2026-04-26 16:33 | 47.45981 | 8.55284 | 1413 ft | 4 kts | 276° |
| 2026-04-26 16:33 | 47.45985 | 8.55203 | 1412 ft | 10 kts | 276° |
| 2026-04-26 16:33 | 47.45999 | 8.55085 | 1403 ft | 15 kts | 274° |
| 2026-04-26 16:33 | 47.46042 | 8.54924 | 1410 ft | 17 kts | 327° |
| 2026-04-26 16:34 | 47.46226 | 8.54799 | 1411 ft | 43 kts | 335° |
| 2026-04-26 16:34 | 47.46579 | 8.54558 | 1412 ft | 67 kts | 335° |
| 2026-04-26 16:34 | 47.47039 | 8.54254 | 1413 ft | 61 kts | 334° |
| 2026-04-26 16:34 | 47.47159 | 8.54173 | 1410 ft | 3 kts | 335° |
| 2026-04-26 16:35 | 47.47271 | 8.54096 | 1411 ft | 32 kts | 335° |
| 2026-04-26 16:35 | 47.47509 | 8.53934 | 1413 ft | 39 kts | 335° |
| 2026-04-26 16:35 | 47.47606 | 8.53757 | 1412 ft | 30 kts | 265° |
| 2026-04-26 16:35 | 47.47481 | 8.53659 | 1412 ft | 24 kts | 160° |
| 2026-04-26 16:36 | 47.47273 | 8.53801 | 1411 ft | 42 kts | 155° |
| 2026-04-26 16:36 | 47.46813 | 8.54118 | 1410 ft | 103 kts | 155° |
| 2026-04-26 16:36 | 47.46009 | 8.54671 | 1412 ft | 144 kts | 155° |
| 2026-04-26 16:36 | 47.45016 | 8.55350 | 1445 ft | 165 kts | 156° |
| 2026-04-26 16:37 | 47.44070 | 8.56103 | 1897 ft | 144 kts | 143° |
| 2026-04-26 16:37 | 47.43186 | 8.56902 | 2009 ft | 153 kts | 149° |
| 2026-04-26 16:37 | 47.42385 | 8.57921 | 2127 ft | 158 kts | 113° |
| 2026-04-26 16:37 | 47.42342 | 8.58969 | 2271 ft | 155 kts | 79° |
| 2026-04-26 16:38 | 47.43273 | 8.60457 | 2772 ft | 152 kts | 27° |
| 2026-04-26 16:38 | 47.44297 | 8.60541 | 3091 ft | 156 kts | 352° |
| 2026-04-26 16:38 | 47.45445 | 8.60017 | 3356 ft | 188 kts | 336° |
| 2026-04-26 16:38 | 47.46467 | 8.58614 | 3554 ft | 217 kts | 304° |
| 2026-04-26 16:39 | 47.46827 | 8.56386 | 3986 ft | 230 kts | 270° |
| 2026-04-26 16:39 | 47.46680 | 8.54831 | 4389 ft | 232 kts | 255° |
| 2026-04-26 16:39 | 47.46002 | 8.52593 | 4830 ft | 248 kts | 241° |
| 2026-04-26 16:39 | 47.45003 | 8.50398 | 5158 ft | 268 kts | 228° |
| 2026-04-26 16:40 | 47.42885 | 8.48495 | 5888 ft | 277 kts | 193° |
| 2026-04-26 16:40 | 47.41594 | 8.48171 | 6410 ft | 278 kts | 184° |
| 2026-04-26 16:40 | 47.39652 | 8.48147 | 7180 ft | 280 kts | 176° |
| 2026-04-26 16:40 | 47.37702 | 8.48418 | 7992 ft | 282 kts | 173° |
| 2026-04-26 16:41 | 47.35749 | 8.48802 | 8803 ft | 284 kts | 173° |
| 2026-04-26 16:41 | 47.33787 | 8.49196 | 9634 ft | 285 kts | 174° |
| 2026-04-26 16:41 | 47.31808 | 8.49556 | 10375 ft | 291 kts | 175° |
| 2026-04-26 16:41 | 47.29753 | 8.49886 | 10689 ft | 311 kts | 176° |
| 2026-04-26 16:42 | 47.27530 | 8.50201 | 10986 ft | 331 kts | 176° |
| 2026-04-26 16:42 | 47.25169 | 8.50507 | 11278 ft | 349 kts | 176° |
| 2026-04-26 16:42 | 47.22677 | 8.50820 | 11590 ft | 365 kts | 176° |
| 2026-04-26 16:42 | 47.20112 | 8.51142 | 12112 ft | 373 kts | 176° |
| 2026-04-26 16:43 | 47.17543 | 8.51466 | 12728 ft | 377 kts | 176° |
| 2026-04-26 16:43 | 47.14914 | 8.51801 | 13378 ft | 382 kts | 176° |
| 2026-04-26 16:43 | 47.12249 | 8.52142 | 14028 ft | 386 kts | 176° |
| 2026-04-26 16:43 | 47.09553 | 8.52488 | 14606 ft | 391 kts | 176° |
| 2026-04-26 16:44 | 47.06829 | 8.52837 | 15207 ft | 395 kts | 177° |
| 2026-04-26 16:44 | 47.04062 | 8.53190 | 15780 ft | 400 kts | 177° |
| 2026-04-26 16:44 | 47.01270 | 8.53562 | 16369 ft | 404 kts | 176° |
| 2026-04-26 16:44 | 46.98465 | 8.53963 | 16972 ft | 407 kts | 176° |
| 2026-04-26 16:45 | 46.95661 | 8.54375 | 17542 ft | 411 kts | 176° |
| 2026-04-26 16:45 | 46.92796 | 8.54799 | 18139 ft | 416 kts | 176° |
| 2026-04-26 16:45 | 46.89903 | 8.55226 | 18659 ft | 419 kts | 176° |
| 2026-04-26 16:45 | 46.86988 | 8.55652 | 19180 ft | 423 kts | 176° |
| 2026-04-26 16:46 | 46.84042 | 8.56075 | 19669 ft | 426 kts | 176° |
| 2026-04-26 16:46 | 46.81082 | 8.56499 | 20255 ft | 428 kts | 176° |
| 2026-04-26 16:46 | 46.78105 | 8.56924 | 20822 ft | 432 kts | 176° |
| 2026-04-26 16:46 | 46.75116 | 8.57352 | 21439 ft | 434 kts | 176° |
| 2026-04-26 16:47 | 46.72103 | 8.57784 | 22025 ft | 436 kts | 176° |
| 2026-04-26 16:47 | 46.69063 | 8.58220 | 22576 ft | 439 kts | 176° |
| 2026-04-26 16:47 | 46.66011 | 8.58659 | 23083 ft | 444 kts | 176° |
| 2026-04-26 16:47 | 46.62921 | 8.59097 | 23625 ft | 447 kts | 176° |
| 2026-04-26 16:48 | 46.59816 | 8.59538 | 24125 ft | 450 kts | 176° |
| 2026-04-26 16:48 | 46.56693 | 8.59986 | 24568 ft | 453 kts | 176° |
| 2026-04-26 16:48 | 46.53571 | 8.60429 | 25041 ft | 456 kts | 176° |
| 2026-04-26 16:48 | 46.50400 | 8.60877 | 25503 ft | 459 kts | 176° |
| 2026-04-26 16:49 | 46.47209 | 8.61327 | 25935 ft | 462 kts | 176° |
| 2026-04-26 16:49 | 46.43998 | 8.61780 | 26395 ft | 465 kts | 176° |
| 2026-04-26 16:49 | 46.40769 | 8.62235 | 26834 ft | 468 kts | 176° |
| 2026-04-26 16:49 | 46.37547 | 8.62689 | 27241 ft | 471 kts | 176° |
| 2026-04-26 16:50 | 46.34271 | 8.63151 | 27688 ft | 474 kts | 176° |
| 2026-04-26 16:50 | 46.30975 | 8.63614 | 28141 ft | 477 kts | 177° |
| 2026-04-26 16:50 | 46.27664 | 8.64080 | 28516 ft | 481 kts | 177° |
| 2026-04-26 16:50 | 46.24315 | 8.64548 | 28964 ft | 483 kts | 176° |
| 2026-04-26 16:51 | 46.20978 | 8.65017 | 29511 ft | 482 kts | 177° |
| 2026-04-26 16:51 | 46.17778 | 8.65466 | 29898 ft | 484 kts | 177° |
| 2026-04-26 16:51 | 46.14450 | 8.65978 | 30216 ft | 488 kts | 174° |
| 2026-04-26 16:51 | 46.11160 | 8.66948 | 30450 ft | 494 kts | 167° |
| 2026-04-26 16:52 | 46.07991 | 8.68577 | 30650 ft | 499 kts | 158° |
| 2026-04-26 16:52 | 46.05911 | 8.70008 | 30873 ft | 500 kts | 155° |
| 2026-04-26 16:52 | 46.01813 | 8.73082 | 31259 ft | 502 kts | 154° |
| 2026-04-26 16:52 | 45.98746 | 8.75499 | 31685 ft | 501 kts | 154° |
| 2026-04-26 16:53 | 45.95701 | 8.77927 | 32115 ft | 500 kts | 154° |
| 2026-04-26 16:53 | 45.92662 | 8.80346 | 32502 ft | 499 kts | 154° |
| 2026-04-26 16:53 | 45.89632 | 8.82741 | 32878 ft | 498 kts | 154° |
| 2026-04-26 16:53 | 45.86586 | 8.85130 | 33297 ft | 496 kts | 154° |
| 2026-04-26 16:54 | 45.83556 | 8.87494 | 33678 ft | 495 kts | 154° |
| 2026-04-26 16:54 | 45.80527 | 8.89847 | 33991 ft | 495 kts | 154° |
| 2026-04-26 16:54 | 45.77501 | 8.92192 | 34276 ft | 494 kts | 154° |
| 2026-04-26 16:54 | 45.74475 | 8.94533 | 34558 ft | 494 kts | 154° |
| 2026-04-26 16:55 | 45.71443 | 8.96876 | 34815 ft | 494 kts | 154° |
| 2026-04-26 16:55 | 45.68418 | 8.99211 | 35059 ft | 494 kts | 154° |
| 2026-04-26 16:55 | 45.65389 | 9.01547 | 35294 ft | 494 kts | 154° |
| 2026-04-26 16:55 | 45.62358 | 9.03866 | 35543 ft | 494 kts | 155° |
| 2026-04-26 16:56 | 45.56244 | 9.08268 | 35901 ft | 496 kts | 156° |
| 2026-04-26 16:56 | 45.53145 | 9.10443 | 36134 ft | 495 kts | 156° |
| 2026-04-26 16:56 | 45.50057 | 9.12613 | 36359 ft | 495 kts | 156° |
| 2026-04-26 16:57 | 45.46972 | 9.14789 | 36600 ft | 495 kts | 156° |
| 2026-04-26 16:57 | 45.43884 | 9.16976 | 36794 ft | 495 kts | 156° |
| 2026-04-26 16:57 | 45.37714 | 9.21358 | 37198 ft | 494 kts | 156° |
| 2026-04-26 16:58 | 45.34645 | 9.23539 | 37429 ft | 494 kts | 156° |
| 2026-04-26 16:58 | 45.32603 | 9.24989 | 37553 ft | 494 kts | 156° |
| 2026-04-26 16:58 | 45.25413 | 9.30083 | 37884 ft | 496 kts | 156° |
| 2026-04-26 16:59 | 45.22322 | 9.32267 | 37874 ft | 497 kts | 156° |
| 2026-04-26 17:00 | 45.09977 | 9.40966 | 37860 ft | 496 kts | 156° |
| 2026-04-26 17:00 | 45.00695 | 9.47478 | 37868 ft | 496 kts | 156° |
| 2026-04-26 17:01 | 44.94538 | 9.51784 | 37856 ft | 495 kts | 156° |
| 2026-04-26 17:01 | 44.88357 | 9.56097 | 37862 ft | 495 kts | 156° |
| 2026-04-26 17:02 | 44.82185 | 9.60393 | 37860 ft | 494 kts | 156° |
| 2026-04-26 17:02 | 44.76004 | 9.64685 | 37861 ft | 494 kts | 156° |
| 2026-04-26 17:03 | 44.69819 | 9.68970 | 37869 ft | 495 kts | 156° |
| 2026-04-26 17:03 | 44.63683 | 9.73211 | 37881 ft | 495 kts | 156° |
| 2026-04-26 17:04 | 44.57490 | 9.77479 | 37811 ft | 494 kts | 155° |
| 2026-04-26 17:04 | 44.51371 | 9.81690 | 37909 ft | 484 kts | 155° |
| 2026-04-26 17:05 | 44.45355 | 9.85822 | 37924 ft | 481 kts | 155° |
| 2026-04-26 17:05 | 44.39386 | 9.89959 | 37930 ft | 482 kts | 155° |
| 2026-04-26 17:06 | 44.33377 | 9.94136 | 37936 ft | 482 kts | 155° |
| 2026-04-26 17:06 | 44.27369 | 9.98298 | 37964 ft | 482 kts | 155° |
| 2026-04-26 17:07 | 44.21347 | 10.02455 | 37966 ft | 482 kts | 155° |
| 2026-04-26 17:07 | 44.15372 | 10.06567 | 37965 ft | 482 kts | 155° |
| 2026-04-26 17:08 | 44.09347 | 10.10705 | 37967 ft | 482 kts | 155° |
| 2026-04-26 17:08 | 44.03313 | 10.14839 | 37970 ft | 482 kts | 155° |
| 2026-04-26 17:09 | 43.98298 | 10.18269 | 37971 ft | 482 kts | 155° |
| 2026-04-26 17:09 | 43.91282 | 10.23031 | 37970 ft | 482 kts | 158° |
| 2026-04-26 17:10 | 43.85224 | 10.26995 | 38161 ft | 482 kts | 158° |
| 2026-04-26 17:10 | 43.79144 | 10.31019 | 38165 ft | 483 kts | 157° |
| 2026-04-26 17:11 | 43.73121 | 10.35026 | 38155 ft | 483 kts | 156° |
| 2026-04-26 17:11 | 43.67058 | 10.39072 | 38156 ft | 483 kts | 156° |
| 2026-04-26 17:12 | 43.57971 | 10.45136 | 38140 ft | 483 kts | 157° |
| 2026-04-26 17:13 | 43.48880 | 10.51176 | 38139 ft | 483 kts | 156° |
| 2026-04-26 17:14 | 43.39799 | 10.57193 | 38141 ft | 483 kts | 156° |
| 2026-04-26 17:14 | 43.30731 | 10.63179 | 38138 ft | 484 kts | 156° |
| 2026-04-26 17:15 | 43.21621 | 10.69172 | 38144 ft | 484 kts | 156° |
| 2026-04-26 17:16 | 43.15522 | 10.73144 | 38141 ft | 484 kts | 157° |
| 2026-04-26 17:16 | 43.09428 | 10.77108 | 38136 ft | 485 kts | 157° |
| 2026-04-26 17:17 | 43.03370 | 10.81043 | 38137 ft | 484 kts | 157° |
| 2026-04-26 17:17 | 42.97272 | 10.84999 | 38137 ft | 485 kts | 157° |
| 2026-04-26 17:18 | 42.91156 | 10.88956 | 38131 ft | 485 kts | 156° |
| 2026-04-26 17:18 | 42.85063 | 10.92890 | 38107 ft | 484 kts | 156° |
| 2026-04-26 17:19 | 42.75958 | 10.98755 | 38102 ft | 485 kts | 156° |
| 2026-04-26 17:19 | 42.69853 | 11.02676 | 38103 ft | 485 kts | 156° |
| 2026-04-26 17:20 | 42.65761 | 11.05098 | 38103 ft | 483 kts | 160° |
| 2026-04-26 17:20 | 42.57391 | 11.09494 | 38111 ft | 484 kts | 161° |
| 2026-04-26 17:21 | 42.51150 | 11.12776 | 38117 ft | 485 kts | 160° |
| 2026-04-26 17:21 | 42.44816 | 11.16173 | 38132 ft | 486 kts | 162° |
| 2026-04-26 17:22 | 42.38529 | 11.19561 | 38133 ft | 491 kts | 162° |
| 2026-04-26 17:22 | 42.32175 | 11.22982 | 38331 ft | 491 kts | 162° |
| 2026-04-26 17:23 | 42.28998 | 11.24690 | 38503 ft | 490 kts | 162° |
| 2026-04-26 17:23 | 42.25829 | 11.26391 | 38656 ft | 490 kts | 162° |
| 2026-04-26 17:23 | 42.22695 | 11.28071 | 38793 ft | 489 kts | 162° |
| 2026-04-26 17:23 | 42.19525 | 11.29769 | 38899 ft | 489 kts | 162° |
| 2026-04-26 17:24 | 42.13196 | 11.33152 | 39099 ft | 488 kts | 162° |
| 2026-04-26 17:24 | 42.06900 | 11.36508 | 39137 ft | 489 kts | 162° |
| 2026-04-26 17:25 | 42.00552 | 11.39825 | 39147 ft | 488 kts | 163° |
| 2026-04-26 17:25 | 41.94163 | 11.42971 | 39149 ft | 488 kts | 164° |
| 2026-04-26 17:26 | 41.88845 | 11.45571 | 39141 ft | 489 kts | 164° |
| 2026-04-26 17:26 | 41.82464 | 11.48713 | 39135 ft | 489 kts | 163° |
| 2026-04-26 17:27 | 41.75047 | 11.52378 | 39141 ft | 489 kts | 163° |
| 2026-04-26 17:27 | 41.69699 | 11.55020 | 39140 ft | 489 kts | 163° |
| 2026-04-26 17:28 | 41.63320 | 11.58163 | 39139 ft | 489 kts | 163° |
| 2026-04-26 17:28 | 41.56969 | 11.61284 | 39142 ft | 489 kts | 163° |
| 2026-04-26 17:29 | 41.51650 | 11.63894 | 39142 ft | 489 kts | 163° |
| 2026-04-26 17:29 | 41.44203 | 11.67539 | 39144 ft | 489 kts | 163° |
| 2026-04-26 17:30 | 41.37797 | 11.70667 | 39133 ft | 489 kts | 163° |
| 2026-04-26 17:30 | 41.31429 | 11.73771 | 39144 ft | 490 kts | 163° |
| 2026-04-26 17:31 | 41.25021 | 11.76887 | 39142 ft | 490 kts | 163° |
| 2026-04-26 17:31 | 41.18614 | 11.79997 | 39138 ft | 490 kts | 163° |
| 2026-04-26 17:32 | 41.12239 | 11.83084 | 39140 ft | 490 kts | 163° |
| 2026-04-26 17:32 | 41.05830 | 11.86182 | 39142 ft | 490 kts | 163° |
| 2026-04-26 17:33 | 40.99415 | 11.89276 | 39141 ft | 490 kts | 163° |
| 2026-04-26 17:34 | 40.89791 | 11.93906 | 39147 ft | 490 kts | 163° |
| 2026-04-26 17:34 | 40.83402 | 11.96971 | 39146 ft | 490 kts | 163° |
| 2026-04-26 17:35 | 40.76986 | 12.00044 | 39146 ft | 490 kts | 163° |
| 2026-04-26 17:35 | 40.70555 | 12.03117 | 39138 ft | 490 kts | 163° |
| 2026-04-26 17:36 | 40.64172 | 12.06160 | 39148 ft | 490 kts | 163° |
| 2026-04-26 17:36 | 40.57852 | 12.09247 | 39149 ft | 478 kts | 162° |
| 2026-04-26 17:37 | 40.51691 | 12.12277 | 39154 ft | 466 kts | 163° |
| 2026-04-26 17:37 | 40.45673 | 12.15164 | 39152 ft | 454 kts | 163° |
| 2026-04-26 17:38 | 40.36775 | 12.19277 | 39150 ft | 456 kts | 165° |
| 2026-04-26 17:38 | 40.30731 | 12.22045 | 39150 ft | 462 kts | 164° |
| 2026-04-26 17:39 | 40.24640 | 12.24886 | 39148 ft | 468 kts | 164° |
| 2026-04-26 17:39 | 40.18484 | 12.27776 | 39153 ft | 473 kts | 164° |
| 2026-04-26 17:40 | 40.13300 | 12.30209 | 39153 ft | 477 kts | 164° |
| 2026-04-26 17:40 | 40.05973 | 12.33637 | 39152 ft | 483 kts | 164° |
| 2026-04-26 17:41 | 39.99606 | 12.36563 | 39155 ft | 487 kts | 166° |
| 2026-04-26 17:41 | 39.93387 | 12.39260 | 39152 ft | 488 kts | 169° |
| 2026-04-26 17:42 | 39.86911 | 12.41992 | 39156 ft | 489 kts | 168° |
| 2026-04-26 17:42 | 39.80457 | 12.44861 | 39157 ft | 489 kts | 167° |
| 2026-04-26 17:43 | 39.74068 | 12.47802 | 39154 ft | 490 kts | 167° |
| 2026-04-26 17:43 | 39.67642 | 12.50775 | 39156 ft | 489 kts | 169° |
| 2026-04-26 17:44 | 39.52174 | 12.57603 | 39160 ft | 483 kts | 169° |
| 2026-04-26 17:44 | 39.27165 | 12.69104 | 39155 ft | 475 kts | 169° |
| 2026-04-26 17:45 | 39.02399 | 12.80403 | 39157 ft | 468 kts | 169° |
| 2026-04-26 17:45 | 38.77947 | 12.91470 | 39157 ft | 463 kts | 170° |
| 2026-04-26 17:46 | 38.53737 | 13.02342 | 39157 ft | 458 kts | 170° |
| 2026-04-26 17:46 | 38.30043 | 13.12912 | 39156 ft | 454 kts | 171° |
| 2026-04-26 17:47 | 38.10139 | 13.21738 | 39149 ft | 450 kts | 171° |
| 2026-04-26 17:47 | 37.82804 | 13.33785 | 39152 ft | 444 kts | 172° |
| 2026-04-26 17:48 | 37.59573 | 13.43943 | 39146 ft | 439 kts | 172° |
| 2026-04-26 17:48 | 37.43488 | 13.50934 | 39148 ft | 436 kts | 172° |
| 2026-04-26 17:49 | 37.37801 | 13.53404 | 39140 ft | 434 kts | 172° |
| 2026-04-26 17:49 | 37.32086 | 13.55889 | 39144 ft | 432 kts | 172° |
| 2026-04-26 17:50 | 37.26418 | 13.58344 | 39143 ft | 430 kts | 172° |
| 2026-04-26 17:50 | 37.20798 | 13.60771 | 39144 ft | 427 kts | 172° |
| 2026-04-26 17:51 | 37.15193 | 13.63191 | 39129 ft | 425 kts | 172° |
| 2026-04-26 17:51 | 37.09640 | 13.65644 | 39139 ft | 423 kts | 170° |
| 2026-04-26 17:52 | 37.04199 | 13.68469 | 39146 ft | 421 kts | 168° |
| 2026-04-26 17:52 | 36.98858 | 13.71339 | 39145 ft | 418 kts | 168° |
| 2026-04-26 17:53 | 36.93517 | 13.74149 | 39143 ft | 414 kts | 169° |
| 2026-04-26 17:54 | 36.85583 | 13.78255 | 39143 ft | 408 kts | 169° |
| 2026-04-26 17:54 | 36.80368 | 13.80944 | 39147 ft | 403 kts | 169° |
| 2026-04-26 17:55 | 36.75217 | 13.83595 | 39144 ft | 398 kts | 169° |
| 2026-04-26 17:55 | 36.70171 | 13.86191 | 39143 ft | 392 kts | 169° |
| 2026-04-26 17:56 | 36.65177 | 13.88760 | 39131 ft | 385 kts | 171° |
| 2026-04-26 17:56 | 36.60274 | 13.91215 | 39143 ft | 373 kts | 172° |
| 2026-04-26 17:57 | 36.55392 | 13.93209 | 38569 ft | 376 kts | 181° |
| 2026-04-26 17:57 | 36.52796 | 13.94212 | 37518 ft | 406 kts | 173° |
| 2026-04-26 17:57 | 36.50114 | 13.95528 | 36231 ft | 432 kts | 171° |
| 2026-04-26 17:57 | 36.47321 | 13.97027 | 34869 ft | 440 kts | 170° |
| 2026-04-26 17:58 | 36.38700 | 14.01578 | 30425 ft | 451 kts | 171° |
| 2026-04-26 17:59 | 36.32642 | 14.02910 | 28032 ft | 437 kts | 195° |
| 2026-04-26 17:59 | 36.29630 | 14.02566 | 26272 ft | 433 kts | 201° |
| 2026-04-26 17:59 | 36.26692 | 14.01736 | 24546 ft | 432 kts | 206° |
| 2026-04-26 17:59 | 36.23835 | 14.00562 | 22611 ft | 434 kts | 205° |
| 2026-04-26 18:00 | 36.20933 | 13.99433 | 20661 ft | 438 kts | 205° |
| 2026-04-26 18:00 | 36.18091 | 13.98110 | 19012 ft | 433 kts | 208° |
| 2026-04-26 18:00 | 36.15369 | 13.96616 | 17389 ft | 425 kts | 211° |
| 2026-04-26 18:00 | 36.12760 | 13.94967 | 15738 ft | 418 kts | 214° |
| 2026-04-26 18:01 | 36.10267 | 13.93175 | 14224 ft | 410 kts | 217° |
| 2026-04-26 18:01 | 36.07821 | 13.91430 | 12504 ft | 405 kts | 209° |
| 2026-04-26 18:01 | 36.05252 | 13.90167 | 11245 ft | 393 kts | 207° |
| 2026-04-26 18:01 | 36.02835 | 13.88843 | 10592 ft | 364 kts | 212° |
| 2026-04-26 18:02 | 36.00598 | 13.87924 | 10217 ft | 331 kts | 193° |
| 2026-04-26 18:02 | 35.99819 | 13.87869 | 9936 ft | 327 kts | 191° |
| 2026-04-26 18:02 | 35.96242 | 13.87767 | 8825 ft | 297 kts | 184° |
| 2026-04-26 18:02 | 35.94212 | 13.88281 | 8340 ft | 300 kts | 169° |
| 2026-04-26 18:03 | 35.92328 | 13.89409 | 8164 ft | 302 kts | 155° |
| 2026-04-26 18:03 | 35.90729 | 13.91041 | 8145 ft | 304 kts | 141° |
| 2026-04-26 18:03 | 35.89447 | 13.93113 | 8163 ft | 304 kts | 129° |
| 2026-04-26 18:03 | 35.88455 | 13.95455 | 8164 ft | 312 kts | 121° |
| 2026-04-26 18:04 | 35.87600 | 13.97963 | 8143 ft | 322 kts | 115° |
| 2026-04-26 18:04 | 35.86951 | 14.00575 | 8143 ft | 310 kts | 98° |
| 2026-04-26 18:04 | 35.86986 | 14.03150 | 8164 ft | 293 kts | 83° |
| 2026-04-26 18:05 | 35.87758 | 14.08029 | 8152 ft | 291 kts | 81° |
| 2026-04-26 18:05 | 35.88135 | 14.10486 | 8148 ft | 292 kts | 82° |
| 2026-04-26 18:05 | 35.88489 | 14.12953 | 8156 ft | 292 kts | 82° |
| 2026-04-26 18:05 | 35.88833 | 14.15422 | 8152 ft | 292 kts | 82° |
| 2026-04-26 18:06 | 35.89173 | 14.17890 | 8151 ft | 292 kts | 82° |
| 2026-04-26 18:06 | 35.89511 | 14.20357 | 8161 ft | 292 kts | 82° |
| 2026-04-26 18:06 | 35.89847 | 14.22829 | 8178 ft | 295 kts | 84° |
| 2026-04-26 18:06 | 35.90166 | 14.25372 | 8242 ft | 304 kts | 85° |
| 2026-04-26 18:07 | 35.90469 | 14.27942 | 8609 ft | 300 kts | 85° |
| 2026-04-26 18:07 | 35.90759 | 14.30443 | 8993 ft | 297 kts | 85° |
| 2026-04-26 18:07 | 35.91055 | 14.32967 | 9261 ft | 298 kts | 84° |
| 2026-04-26 18:07 | 35.91258 | 14.34680 | 9443 ft | 299 kts | 84° |
| 2026-04-26 18:08 | 35.91662 | 14.38060 | 9788 ft | 301 kts | 84° |
| 2026-04-26 18:08 | 35.91969 | 14.40619 | 10031 ft | 303 kts | 84° |
| 2026-04-26 18:08 | 35.92286 | 14.43195 | 10147 ft | 303 kts | 83° |
| 2026-04-26 18:08 | 35.92614 | 14.45763 | 10160 ft | 303 kts | 84° |
| 2026-04-26 18:09 | 35.92536 | 14.48337 | 10160 ft | 300 kts | 105° |
| 2026-04-26 18:09 | 35.92125 | 14.50873 | 10126 ft | 304 kts | 98° |
| 2026-04-26 18:09 | 35.92204 | 14.53492 | 10150 ft | 308 kts | 81° |
| 2026-04-26 18:09 | 35.92904 | 14.55977 | 10153 ft | 306 kts | 63° |
| 2026-04-26 18:10 | 35.94165 | 14.58075 | 10154 ft | 304 kts | 45° |
| 2026-04-26 18:10 | 35.95834 | 14.59573 | 10155 ft | 300 kts | 28° |
| 2026-04-26 18:10 | 35.97774 | 14.60332 | 10155 ft | 284 kts | 6° |
| 2026-04-26 18:10 | 35.99662 | 14.60145 | 10103 ft | 265 kts | 342° |
| 2026-04-26 18:11 | 36.01274 | 14.59070 | 9531 ft | 268 kts | 318° |
| 2026-04-26 18:11 | 36.02351 | 14.57207 | 9088 ft | 267 kts | 293° |
| 2026-04-26 18:11 | 36.02650 | 14.54984 | 8831 ft | 261 kts | 267° |
| 2026-04-26 18:11 | 36.02162 | 14.52865 | 8595 ft | 256 kts | 246° |
| 2026-04-26 18:12 | 36.01315 | 14.50969 | 8352 ft | 252 kts | 242° |
| 2026-04-26 18:12 | 36.00420 | 14.49126 | 8110 ft | 247 kts | 241° |
| 2026-04-26 18:12 | 35.99532 | 14.47322 | 7821 ft | 245 kts | 238° |
| 2026-04-26 18:12 | 35.98427 | 14.45652 | 7254 ft | 256 kts | 230° |
| 2026-04-26 18:13 | 35.97331 | 14.43920 | 6578 ft | 262 kts | 256° |
| 2026-04-26 18:13 | 35.97085 | 14.41604 | 5559 ft | 282 kts | 244° |
| 2026-04-26 18:13 | 35.95495 | 14.40320 | 3918 ft | 315 kts | 174° |
| 2026-04-26 18:13 | 35.94769 | 14.40475 | 3949 ft | 299 kts | 155° |
| 2026-04-26 18:14 | 35.91971 | 14.42150 | 4036 ft | 260 kts | 136° |
| 2026-04-26 18:14 | 35.90554 | 14.43529 | 3274 ft | 269 kts | 127° |
| 2026-04-26 18:14 | 35.89805 | 14.45645 | 2646 ft | 264 kts | 98° |
| 2026-04-26 18:14 | 35.88907 | 14.47504 | 1955 ft | 259 kts | 147° |
| 2026-04-26 18:15 | 35.87182 | 14.47913 | 1324 ft | 251 kts | 180° |
| 2026-04-26 18:15 | 35.86007 | 14.48012 | 671 ft | 258 kts | 168° |
| 2026-04-26 18:15 | 35.84575 | 14.49202 | 275 ft | 245 kts | 131° |
| 2026-04-26 18:15 | 35.83199 | 14.50966 | 301 ft | 26 kts | 170° |
| 2026-04-26 18:16 | 35.83154 | 14.50997 | 253 ft | 0 kts | 105° |
| 2026-04-26 18:16 | 35.83169 | 14.50929 | 247 ft | 7 kts | 105° |
| 2026-04-26 18:16 | 35.83174 | 14.50906 | 245 ft | 0 kts | 105° |